HT-0002 weather

Anse-a-Galets Airport
Ouest Department, Haiti

Public forecast

Using degrees Celsius for public forecast. Weather courtesy of forecast.io.

METAR (pilot weather report)

Closest report is Toussaint Louverture International Airport, 36.9 nm (68.4 km) ESE. Retrieved 2019/03/22 14:00 UTC (11 minutes ago):

MTPP 221400Z VRB02KT 9000 FEW024 BKN060 27/22 Q1015 A2999

TAF (pilot weather forecast)

Forecast is more than 12 hours old.

Closest forecast is Toussaint Louverture International Airport, 36.9 nm (68.4 km) ESE. Retrieved 2019/03/21 18:06 UTC (20 hours ago):

TAF MTPP 211605Z 2118/2218 30004KT 9000 SCT020 PROB40 TEMPO 2121/2208 4800 TSRA BKN022CB OVC050 BECMG 2212/2216 09014KT 9000 NSW FEW020 SCT070